Terminal Aerodrome Forecast
Issued by NWS

Home | Current Version | Previous Version | Graphics & Text | Print | Product List | Glossary On
Versions: 1 2 3 4 5 6 7 8 9 10 11 12 13 14 15 16 17 18 19 20 21 22
000
FTUS43 KICT 252335
TAFSLN
TAF
KSLN 252335Z 2600/2624 04007KT P6SM BKN035
     FM260500 05004KT P6SM VCSH OVC020
     FM261200 VRB03KT P6SM SCT020 BKN150
     FM261600 14006KT P6SM SCT030=

USA.gov is the U.S. government's official web portal to all federal, state and local government web resources and services.